sensor_id;sensor_type;location;lat;lon;timestamp;P1;durP1;ratioP1;P2;durP2;ratioP2
58697;SDS011;44475;53.206;-6.106;2023-07-31T00:00:44;2.70;;;1.40;;
58697;SDS011;44475;53.206;-6.106;2023-07-31T00:03:11;3.25;;;1.50;;
58697;SDS011;44475;53.206;-6.106;2023-07-31T00:05:37;2.80;;;1.23;;
58697;SDS011;44475;53.206;-6.106;2023-07-31T00:08:04;5.72;;;1.55;;
58697;SDS011;44475;53.206;-6.106;2023-07-31T00:10:30;2.67;;;1.50;;
58697;SDS011;44475;53.206;-6.106;2023-07-31T00:12:56;3.63;;;1.40;;
58697;SDS011;44475;53.206;-6.106;2023-07-31T00:15:22;2.40;;;1.33;;
58697;SDS011;44475;53.206;-6.106;2023-07-31T00:17:49;6.13;;;1.60;;
58697;SDS011;44475;53.206;-6.106;2023-07-31T00:20:15;2.83;;;1.50;;
58697;SDS011;44475;53.206;-6.106;2023-07-31T00:22:41;2.95;;;1.40;;
58697;SDS011;44475;53.206;-6.106;2023-07-31T00:25:07;5.05;;;1.58;;
58697;SDS011;44475;53.206;-6.106;2023-07-31T00:27:34;3.40;;;1.30;;
58697;SDS011;44475;53.206;-6.106;2023-07-31T00:30:00;3.03;;;1.50;;
58697;SDS011;44475;53.206;-6.106;2023-07-31T00:32:26;2.60;;;1.30;;
58697;SDS011;44475;53.206;-6.106;2023-07-31T00:34:52;3.90;;;1.80;;
58697;SDS011;44475;53.206;-6.106;2023-07-31T00:37:18;2.05;;;1.33;;
58697;SDS011;44475;53.206;-6.106;2023-07-31T00:39:45;3.05;;;1.45;;
58697;SDS011;44475;53.206;-6.106;2023-07-31T00:42:11;2.70;;;1.40;;
58697;SDS011;44475;53.206;-6.106;2023-07-31T00:44:37;3.45;;;1.60;;
58697;SDS011;44475;53.206;-6.106;2023-07-31T00:47:03;2.70;;;1.40;;
58697;SDS011;44475;53.206;-6.106;2023-07-31T00:49:30;3.30;;;1.30;;
58697;SDS011;44475;53.206;-6.106;2023-07-31T00:51:57;2.65;;;1.40;;
58697;SDS011;44475;53.206;-6.106;2023-07-31T00:54:24;3.10;;;1.45;;
58697;SDS011;44475;53.206;-6.106;2023-07-31T00:56:50;1.60;;;1.30;;
58697;SDS011;44475;53.206;-6.106;2023-07-31T00:59:20;3.05;;;1.38;;
58697;SDS011;44475;53.206;-6.106;2023-07-31T01:01:47;2.70;;;1.40;;
58697;SDS011;44475;53.206;-6.106;2023-07-31T01:04:14;2.47;;;1.30;;
58697;SDS011;44475;53.206;-6.106;2023-07-31T01:09:55;2.03;;;1.23;;
58697;SDS011;44475;53.206;-6.106;2023-07-31T01:12:27;3.15;;;1.48;;
58697;SDS011;44475;53.206;-6.106;2023-07-31T01:17:34;2.70;;;1.42;;
58697;SDS011;44475;53.206;-6.106;2023-07-31T01:20:02;1.33;;;1.20;;
58697;SDS011;44475;53.206;-6.106;2023-07-31T01:27:58;2.17;;;1.15;;
58697;SDS011;44475;53.206;-6.106;2023-07-31T01:30:29;1.20;;;1.10;;
58697;SDS011;44475;53.206;-6.106;2023-07-31T01:33:00;1.75;;;1.23;;
58697;SDS011;44475;53.206;-6.106;2023-07-31T01:35:32;3.25;;;1.30;;
58697;SDS011;44475;53.206;-6.106;2023-07-31T01:38:00;1.55;;;1.27;;
58697;SDS011;44475;53.206;-6.106;2023-07-31T01:40:26;1.58;;;1.30;;
58697;SDS011;44475;53.206;-6.106;2023-07-31T01:42:52;1.92;;;1.08;;
58697;SDS011;44475;53.206;-6.106;2023-07-31T01:45:18;1.25;;;1.15;;
58697;SDS011;44475;53.206;-6.106;2023-07-31T01:47:45;2.17;;;1.20;;
58697;SDS011;44475;53.206;-6.106;2023-07-31T01:50:11;2.90;;;1.30;;
58697;SDS011;44475;53.206;-6.106;2023-07-31T01:52:38;1.73;;;1.20;;
58697;SDS011;44475;53.206;-6.106;2023-07-31T01:55:04;1.13;;;1.00;;
58697;SDS011;44475;53.206;-6.106;2023-07-31T01:57:30;1.20;;;1.10;;
58697;SDS011;44475;53.206;-6.106;2023-07-31T01:59:57;1.23;;;1.10;;
58697;SDS011;44475;53.206;-6.106;2023-07-31T02:02:23;1.88;;;1.20;;
58697;SDS011;44475;53.206;-6.106;2023-07-31T02:04:50;3.05;;;1.13;;
58697;SDS011;44475;53.206;-6.106;2023-07-31T02:07:16;1.80;;;1.20;;
58697;SDS011;44475;53.206;-6.106;2023-07-31T02:09:43;2.38;;;1.17;;
58697;SDS011;44475;53.206;-6.106;2023-07-31T02:12:09;1.20;;;1.10;;
58697;SDS011;44475;53.206;-6.106;2023-07-31T02:14:36;1.08;;;1.00;;
58697;SDS011;44475;53.206;-6.106;2023-07-31T02:17:02;1.20;;;1.10;;
58697;SDS011;44475;53.206;-6.106;2023-07-31T02:19:29;1.58;;;1.10;;
58697;SDS011;44475;53.206;-6.106;2023-07-31T02:21:55;2.42;;;1.25;;
58697;SDS011;44475;53.206;-6.106;2023-07-31T02:24:21;2.08;;;1.20;;
58697;SDS011;44475;53.206;-6.106;2023-07-31T02:26:48;1.83;;;1.25;;
58697;SDS011;44475;53.206;-6.106;2023-07-31T02:29:14;2.80;;;1.30;;
58697;SDS011;44475;53.206;-6.106;2023-07-31T02:31:40;1.40;;;1.10;;
58697;SDS011;44475;53.206;-6.106;2023-07-31T02:34:07;1.10;;;1.02;;
58697;SDS011;44475;53.206;-6.106;2023-07-31T02:36:33;1.55;;;1.25;;
58697;SDS011;44475;53.206;-6.106;2023-07-31T02:38:59;2.08;;;1.20;;
58697;SDS011;44475;53.206;-6.106;2023-07-31T02:41:26;1.20;;;1.10;;
58697;SDS011;44475;53.206;-6.106;2023-07-31T02:43:52;1.25;;;1.10;;
58697;SDS011;44475;53.206;-6.106;2023-07-31T02:46:19;1.20;;;1.10;;
58697;SDS011;44475;53.206;-6.106;2023-07-31T02:48:49;1.45;;;1.15;;
58697;SDS011;44475;53.206;-6.106;2023-07-31T02:51:16;1.58;;;1.15;;
58697;SDS011;44475;53.206;-6.106;2023-07-31T02:53:42;0.90;;;0.90;;
58697;SDS011;44475;53.206;-6.106;2023-07-31T02:56:08;1.20;;;1.10;;
58697;SDS011;44475;53.206;-6.106;2023-07-31T02:58:35;1.20;;;1.10;;
58697;SDS011;44475;53.206;-6.106;2023-07-31T03:01:01;2.70;;;1.05;;
58697;SDS011;44475;53.206;-6.106;2023-07-31T03:03:27;1.08;;;1.02;;
58697;SDS011;44475;53.206;-6.106;2023-07-31T03:05:54;1.38;;;1.05;;
58697;SDS011;44475;53.206;-6.106;2023-07-31T03:08:20;3.30;;;1.40;;
58697;SDS011;44475;53.206;-6.106;2023-07-31T03:10:48;1.20;;;1.10;;
58697;SDS011;44475;53.206;-6.106;2023-07-31T03:13:14;1.20;;;1.10;;
58697;SDS011;44475;53.206;-6.106;2023-07-31T03:15:43;1.90;;;1.05;;
58697;SDS011;44475;53.206;-6.106;2023-07-31T03:18:09;1.27;;;1.17;;
58697;SDS011;44475;53.206;-6.106;2023-07-31T03:20:36;1.50;;;1.20;;
58697;SDS011;44475;53.206;-6.106;2023-07-31T03:23:02;1.05;;;1.02;;
58697;SDS011;44475;53.206;-6.106;2023-07-31T03:25:28;1.10;;;1.00;;
58697;SDS011;44475;53.206;-6.106;2023-07-31T03:27:54;2.17;;;1.05;;
58697;SDS011;44475;53.206;-6.106;2023-07-31T03:30:21;1.20;;;1.00;;
58697;SDS011;44475;53.206;-6.106;2023-07-31T03:32:47;1.15;;;1.05;;
58697;SDS011;44475;53.206;-6.106;2023-07-31T03:35:13;1.55;;;1.13;;
58697;SDS011;44475;53.206;-6.106;2023-07-31T03:37:39;0.95;;;0.90;;
58697;SDS011;44475;53.206;-6.106;2023-07-31T03:40:06;1.92;;;0.85;;
58697;SDS011;44475;53.206;-6.106;2023-07-31T03:42:32;1.25;;;1.15;;
58697;SDS011;44475;53.206;-6.106;2023-07-31T03:44:59;1.20;;;1.10;;
58697;SDS011;44475;53.206;-6.106;2023-07-31T03:47:25;1.27;;;1.10;;
58697;SDS011;44475;53.206;-6.106;2023-07-31T03:49:52;1.27;;;1.00;;
58697;SDS011;44475;53.206;-6.106;2023-07-31T03:52:18;1.20;;;1.10;;
58697;SDS011;44475;53.206;-6.106;2023-07-31T03:54:44;1.00;;;0.95;;
58697;SDS011;44475;53.206;-6.106;2023-07-31T03:57:11;0.90;;;0.90;;
58697;SDS011;44475;53.206;-6.106;2023-07-31T03:59:37;1.05;;;1.00;;
58697;SDS011;44475;53.206;-6.106;2023-07-31T04:02:06;1.42;;;1.13;;
58697;SDS011;44475;53.206;-6.106;2023-07-31T04:04:32;1.20;;;1.10;;
58697;SDS011;44475;53.206;-6.106;2023-07-31T04:06:58;1.23;;;1.02;;
58697;SDS011;44475;53.206;-6.106;2023-07-31T04:09:25;1.30;;;1.00;;
58697;SDS011;44475;53.206;-6.106;2023-07-31T04:11:51;1.35;;;1.10;;
58697;SDS011;44475;53.206;-6.106;2023-07-31T04:14:17;0.95;;;0.90;;
58697;SDS011;44475;53.206;-6.106;2023-07-31T04:16:43;1.17;;;1.05;;
58697;SDS011;44475;53.206;-6.106;2023-07-31T04:19:09;1.08;;;0.98;;
58697;SDS011;44475;53.206;-6.106;2023-07-31T04:21:36;0.98;;;0.98;;
58697;SDS011;44475;53.206;-6.106;2023-07-31T04:24:02;0.88;;;0.88;;
58697;SDS011;44475;53.206;-6.106;2023-07-31T04:26:28;1.10;;;1.00;;
58697;SDS011;44475;53.206;-6.106;2023-07-31T04:28:54;1.20;;;1.10;;
58697;SDS011;44475;53.206;-6.106;2023-07-31T04:31:21;1.13;;;1.00;;
58697;SDS011;44475;53.206;-6.106;2023-07-31T04:33:47;0.95;;;0.95;;
58697;SDS011;44475;53.206;-6.106;2023-07-31T04:36:13;2.15;;;1.10;;
58697;SDS011;44475;53.206;-6.106;2023-07-31T04:38:39;1.00;;;0.90;;
58697;SDS011;44475;53.206;-6.106;2023-07-31T04:41:06;1.25;;;0.95;;
58697;SDS011;44475;53.206;-6.106;2023-07-31T04:43:32;1.13;;;1.02;;
58697;SDS011;44475;53.206;-6.106;2023-07-31T04:45:59;0.90;;;0.90;;
58697;SDS011;44475;53.206;-6.106;2023-07-31T04:48:25;0.95;;;0.90;;
58697;SDS011;44475;53.206;-6.106;2023-07-31T04:50:51;1.20;;;1.10;;
58697;SDS011;44475;53.206;-6.106;2023-07-31T04:53:18;0.93;;;0.90;;
58697;SDS011;44475;53.206;-6.106;2023-07-31T04:55:44;1.10;;;1.00;;
58697;SDS011;44475;53.206;-6.106;2023-07-31T04:58:11;0.75;;;0.75;;
58697;SDS011;44475;53.206;-6.106;2023-07-31T05:00:37;1.10;;;1.00;;
58697;SDS011;44475;53.206;-6.106;2023-07-31T05:03:03;1.00;;;1.00;;
58697;SDS011;44475;53.206;-6.106;2023-07-31T05:05:30;1.20;;;1.10;;
58697;SDS011;44475;53.206;-6.106;2023-07-31T05:07:56;0.80;;;0.80;;
58697;SDS011;44475;53.206;-6.106;2023-07-31T05:10:22;0.90;;;0.88;;
58697;SDS011;44475;53.206;-6.106;2023-07-31T05:12:48;1.27;;;1.00;;
58697;SDS011;44475;53.206;-6.106;2023-07-31T05:15:15;1.52;;;0.98;;
58697;SDS011;44475;53.206;-6.106;2023-07-31T05:17:41;0.70;;;0.70;;
58697;SDS011;44475;53.206;-6.106;2023-07-31T05:20:07;1.00;;;1.00;;
58697;SDS011;44475;53.206;-6.106;2023-07-31T05:22:34;0.95;;;0.95;;
58697;SDS011;44475;53.206;-6.106;2023-07-31T05:25:00;0.80;;;0.80;;
58697;SDS011;44475;53.206;-6.106;2023-07-31T05:27:26;1.45;;;0.80;;
58697;SDS011;44475;53.206;-6.106;2023-07-31T05:29:53;0.90;;;0.90;;
58697;SDS011;44475;53.206;-6.106;2023-07-31T05:32:19;1.23;;;1.00;;
58697;SDS011;44475;53.206;-6.106;2023-07-31T05:34:45;0.88;;;0.80;;
58697;SDS011;44475;53.206;-6.106;2023-07-31T05:37:11;1.17;;;1.10;;
58697;SDS011;44475;53.206;-6.106;2023-07-31T05:39:38;1.38;;;1.00;;
58697;SDS011;44475;53.206;-6.106;2023-07-31T05:42:04;1.02;;;0.93;;
58697;SDS011;44475;53.206;-6.106;2023-07-31T05:44:30;1.13;;;1.02;;
58697;SDS011;44475;53.206;-6.106;2023-07-31T05:46:57;0.80;;;0.80;;
58697;SDS011;44475;53.206;-6.106;2023-07-31T05:49:23;1.52;;;1.25;;
58697;SDS011;44475;53.206;-6.106;2023-07-31T05:51:49;1.10;;;1.00;;
58697;SDS011;44475;53.206;-6.106;2023-07-31T05:54:15;1.17;;;1.00;;
58697;SDS011;44475;53.206;-6.106;2023-07-31T05:56:42;1.10;;;1.00;;
58697;SDS011;44475;53.206;-6.106;2023-07-31T05:59:08;1.15;;;1.05;;
58697;SDS011;44475;53.206;-6.106;2023-07-31T06:01:37;1.25;;;1.13;;
58697;SDS011;44475;53.206;-6.106;2023-07-31T06:04:04;1.10;;;1.00;;
58697;SDS011;44475;53.206;-6.106;2023-07-31T06:06:30;1.38;;;1.05;;
58697;SDS011;44475;53.206;-6.106;2023-07-31T06:08:57;1.20;;;1.10;;
58697;SDS011;44475;53.206;-6.106;2023-07-31T06:11:23;1.60;;;1.10;;
58697;SDS011;44475;53.206;-6.106;2023-07-31T06:13:49;2.00;;;1.17;;
58697;SDS011;44475;53.206;-6.106;2023-07-31T06:16:15;1.35;;;1.15;;
58697;SDS011;44475;53.206;-6.106;2023-07-31T06:18:42;1.38;;;1.20;;
58697;SDS011;44475;53.206;-6.106;2023-07-31T06:21:08;1.25;;;1.10;;
58697;SDS011;44475;53.206;-6.106;2023-07-31T06:23:35;1.70;;;1.20;;
58697;SDS011;44475;53.206;-6.106;2023-07-31T06:26:01;1.20;;;1.10;;
58697;SDS011;44475;53.206;-6.106;2023-07-31T06:28:28;1.63;;;1.20;;
58697;SDS011;44475;53.206;-6.106;2023-07-31T06:30:54;2.05;;;1.20;;
58697;SDS011;44475;53.206;-6.106;2023-07-31T06:33:21;2.25;;;1.15;;
58697;SDS011;44475;53.206;-6.106;2023-07-31T06:35:47;1.77;;;1.23;;
58697;SDS011;44475;53.206;-6.106;2023-07-31T06:38:13;1.70;;;1.30;;
58697;SDS011;44475;53.206;-6.106;2023-07-31T06:40:39;1.50;;;1.20;;
58697;SDS011;44475;53.206;-6.106;2023-07-31T06:43:06;1.58;;;1.25;;
58697;SDS011;44475;53.206;-6.106;2023-07-31T06:45:35;1.48;;;1.23;;
58697;SDS011;44475;53.206;-6.106;2023-07-31T06:48:02;1.48;;;1.30;;
58697;SDS011;44475;53.206;-6.106;2023-07-31T06:50:30;1.80;;;1.20;;
58697;SDS011;44475;53.206;-6.106;2023-07-31T06:52:56;1.88;;;1.30;;
58697;SDS011;44475;53.206;-6.106;2023-07-31T06:55:23;1.40;;;1.30;;
58697;SDS011;44475;53.206;-6.106;2023-07-31T06:57:52;1.75;;;1.30;;
58697;SDS011;44475;53.206;-6.106;2023-07-31T07:00:19;2.50;;;1.50;;
58697;SDS011;44475;53.206;-6.106;2023-07-31T07:02:47;1.73;;;1.30;;
58697;SDS011;44475;53.206;-6.106;2023-07-31T07:05:14;1.42;;;1.20;;
58697;SDS011;44475;53.206;-6.106;2023-07-31T07:07:42;1.55;;;1.30;;
58697;SDS011;44475;53.206;-6.106;2023-07-31T07:10:08;2.60;;;1.60;;
58697;SDS011;44475;53.206;-6.106;2023-07-31T07:12:35;2.53;;;1.40;;
58697;SDS011;44475;53.206;-6.106;2023-07-31T07:15:02;3.65;;;1.40;;
58697;SDS011;44475;53.206;-6.106;2023-07-31T07:17:29;2.60;;;1.40;;
58697;SDS011;44475;53.206;-6.106;2023-07-31T07:19:58;1.90;;;1.40;;
58697;SDS011;44475;53.206;-6.106;2023-07-31T07:22:25;1.60;;;1.30;;
58697;SDS011;44475;53.206;-6.106;2023-07-31T07:24:52;1.83;;;1.40;;
58697;SDS011;44475;53.206;-6.106;2023-07-31T07:27:19;2.50;;;1.50;;
58697;SDS011;44475;53.206;-6.106;2023-07-31T07:29:45;2.38;;;1.50;;
58697;SDS011;44475;53.206;-6.106;2023-07-31T07:32:12;1.65;;;1.30;;
58697;SDS011;44475;53.206;-6.106;2023-07-31T07:34:38;2.03;;;1.30;;
58697;SDS011;44475;53.206;-6.106;2023-07-31T07:37:04;1.45;;;1.35;;
58697;SDS011;44475;53.206;-6.106;2023-07-31T07:39:31;1.73;;;1.38;;
58697;SDS011;44475;53.206;-6.106;2023-07-31T07:41:57;2.50;;;1.30;;
58697;SDS011;44475;53.206;-6.106;2023-07-31T07:44:23;1.65;;;1.30;;
58697;SDS011;44475;53.206;-6.106;2023-07-31T07:46:49;2.30;;;1.52;;
58697;SDS011;44475;53.206;-6.106;2023-07-31T07:49:16;1.65;;;1.30;;
58697;SDS011;44475;53.206;-6.106;2023-07-31T07:51:42;1.88;;;1.35;;
58697;SDS011;44475;53.206;-6.106;2023-07-31T07:54:08;1.67;;;1.30;;
58697;SDS011;44475;53.206;-6.106;2023-07-31T07:56:34;2.65;;;1.52;;
58697;SDS011;44475;53.206;-6.106;2023-07-31T07:59:01;2.50;;;1.50;;
58697;SDS011;44475;53.206;-6.106;2023-07-31T08:01:27;14.60;;;3.55;;
58697;SDS011;44475;53.206;-6.106;2023-07-31T08:03:53;364.70;;;78.68;;
58697;SDS011;44475;53.206;-6.106;2023-07-31T08:06:20;475.48;;;112.15;;
58697;SDS011;44475;53.206;-6.106;2023-07-31T08:08:47;493.52;;;124.40;;
58697;SDS011;44475;53.206;-6.106;2023-07-31T08:11:14;533.00;;;141.30;;
58697;SDS011;44475;53.206;-6.106;2023-07-31T08:13:40;544.15;;;149.45;;
58697;SDS011;44475;53.206;-6.106;2023-07-31T08:16:06;565.25;;;163.98;;
58697;SDS011;44475;53.206;-6.106;2023-07-31T08:18:33;562.08;;;162.98;;
58697;SDS011;44475;53.206;-6.106;2023-07-31T08:21:01;581.88;;;177.77;;
58697;SDS011;44475;53.206;-6.106;2023-07-31T08:23:28;568.88;;;175.27;;
58697;SDS011;44475;53.206;-6.106;2023-07-31T08:25:54;584.05;;;186.15;;
58697;SDS011;44475;53.206;-6.106;2023-07-31T08:28:20;567.42;;;178.13;;
58697;SDS011;44475;53.206;-6.106;2023-07-31T08:30:47;560.90;;;179.52;;
58697;SDS011;44475;53.206;-6.106;2023-07-31T08:33:13;560.75;;;176.18;;
58697;SDS011;44475;53.206;-6.106;2023-07-31T08:35:39;547.78;;;173.57;;
58697;SDS011;44475;53.206;-6.106;2023-07-31T08:38:05;556.83;;;177.30;;
58697;SDS011;44475;53.206;-6.106;2023-07-31T08:40:31;545.95;;;175.88;;
58697;SDS011;44475;53.206;-6.106;2023-07-31T08:43:01;521.80;;;172.57;;
58697;SDS011;44475;53.206;-6.106;2023-07-31T08:45:27;523.20;;;175.75;;
58697;SDS011;44475;53.206;-6.106;2023-07-31T08:47:55;520.25;;;172.07;;
58697;SDS011;44475;53.206;-6.106;2023-07-31T08:50:22;510.75;;;168.88;;
58697;SDS011;44475;53.206;-6.106;2023-07-31T08:52:49;510.33;;;167.70;;
58697;SDS011;44475;53.206;-6.106;2023-07-31T08:55:17;498.83;;;168.18;;
58697;SDS011;44475;53.206;-6.106;2023-07-31T08:57:48;487.20;;;163.10;;
58697;SDS011;44475;53.206;-6.106;2023-07-31T09:00:20;478.73;;;159.25;;
58697;SDS011;44475;53.206;-6.106;2023-07-31T09:02:52;470.95;;;160.07;;
58697;SDS011;44475;53.206;-6.106;2023-07-31T09:05:33;473.85;;;160.15;;
58697;SDS011;44475;53.206;-6.106;2023-07-31T09:08:02;472.00;;;158.23;;
58697;SDS011;44475;53.206;-6.106;2023-07-31T09:10:30;438.38;;;143.35;;
58697;SDS011;44475;53.206;-6.106;2023-07-31T09:12:56;424.42;;;139.77;;
58697;SDS011;44475;53.206;-6.106;2023-07-31T09:15:24;428.05;;;142.00;;
58697;SDS011;44475;53.206;-6.106;2023-07-31T09:17:58;406.52;;;137.95;;
58697;SDS011;44475;53.206;-6.106;2023-07-31T09:20:28;393.98;;;135.20;;
58697;SDS011;44475;53.206;-6.106;2023-07-31T09:22:55;399.83;;;137.95;;
58697;SDS011;44475;53.206;-6.106;2023-07-31T09:25:27;408.80;;;139.00;;
58697;SDS011;44475;53.206;-6.106;2023-07-31T09:27:57;396.88;;;134.63;;
58697;SDS011;44475;53.206;-6.106;2023-07-31T09:30:24;392.77;;;135.02;;
58697;SDS011;44475;53.206;-6.106;2023-07-31T09:32:51;358.52;;;130.25;;
58697;SDS011;44475;53.206;-6.106;2023-07-31T09:35:30;378.25;;;131.75;;
58697;SDS011;44475;53.206;-6.106;2023-07-31T09:37:59;378.70;;;135.10;;
58697;SDS011;44475;53.206;-6.106;2023-07-31T09:40:37;377.65;;;136.20;;
58697;SDS011;44475;53.206;-6.106;2023-07-31T09:43:09;375.55;;;134.40;;
58697;SDS011;44475;53.206;-6.106;2023-07-31T09:45:40;377.70;;;137.95;;
58697;SDS011;44475;53.206;-6.106;2023-07-31T09:48:14;387.17;;;142.27;;
58697;SDS011;44475;53.206;-6.106;2023-07-31T09:50:42;360.70;;;133.57;;
58697;SDS011;44475;53.206;-6.106;2023-07-31T09:53:13;368.48;;;134.43;;
58697;SDS011;44475;53.206;-6.106;2023-07-31T09:55:41;347.02;;;132.32;;
58697;SDS011;44475;53.206;-6.106;2023-07-31T09:58:08;342.48;;;133.60;;
58697;SDS011;44475;53.206;-6.106;2023-07-31T10:00:36;352.80;;;134.35;;
58697;SDS011;44475;53.206;-6.106;2023-07-31T10:03:06;348.60;;;133.80;;
58697;SDS011;44475;53.206;-6.106;2023-07-31T10:05:35;340.27;;;131.73;;
58697;SDS011;44475;53.206;-6.106;2023-07-31T10:08:01;336.90;;;131.95;;
58697;SDS011;44475;53.206;-6.106;2023-07-31T10:10:28;334.40;;;129.93;;
58697;SDS011;44475;53.206;-6.106;2023-07-31T10:12:57;339.05;;;129.75;;
58697;SDS011;44475;53.206;-6.106;2023-07-31T10:15:25;315.98;;;127.78;;
58697;SDS011;44475;53.206;-6.106;2023-07-31T10:17:52;324.92;;;128.48;;
58697;SDS011;44475;53.206;-6.106;2023-07-31T10:20:20;333.30;;;131.95;;
58697;SDS011;44475;53.206;-6.106;2023-07-31T10:22:47;304.42;;;126.85;;
58697;SDS011;44475;53.206;-6.106;2023-07-31T10:25:15;308.08;;;126.35;;
58697;SDS011;44475;53.206;-6.106;2023-07-31T10:27:42;324.58;;;126.45;;
58697;SDS011;44475;53.206;-6.106;2023-07-31T10:30:09;318.42;;;127.60;;
58697;SDS011;44475;53.206;-6.106;2023-07-31T10:32:40;314.55;;;128.10;;
58697;SDS011;44475;53.206;-6.106;2023-07-31T10:35:08;303.10;;;124.85;;
58697;SDS011;44475;53.206;-6.106;2023-07-31T10:37:36;307.17;;;127.22;;
58697;SDS011;44475;53.206;-6.106;2023-07-31T10:42:46;298.98;;;124.68;;
58697;SDS011;44475;53.206;-6.106;2023-07-31T10:48:03;293.00;;;122.82;;
58697;SDS011;44475;53.206;-6.106;2023-07-31T10:50:30;289.83;;;122.72;;
58697;SDS011;44475;53.206;-6.106;2023-07-31T10:53:04;280.95;;;116.57;;
58697;SDS011;44475;53.206;-6.106;2023-07-31T10:55:32;268.45;;;115.55;;
58697;SDS011;44475;53.206;-6.106;2023-07-31T10:58:09;272.17;;;115.03;;
58697;SDS011;44475;53.206;-6.106;2023-07-31T11:00:36;270.13;;;113.68;;
58697;SDS011;44475;53.206;-6.106;2023-07-31T11:08:22;258.25;;;108.55;;
58697;SDS011;44475;53.206;-6.106;2023-07-31T11:15:54;254.27;;;110.20;;
58697;SDS011;44475;53.206;-6.106;2023-07-31T11:18:20;246.00;;;104.45;;
58697;SDS011;44475;53.206;-6.106;2023-07-31T11:20:46;237.93;;;102.78;;
58697;SDS011;44475;53.206;-6.106;2023-07-31T11:23:13;233.43;;;101.47;;
58697;SDS011;44475;53.206;-6.106;2023-07-31T11:25:42;235.23;;;99.68;;
58697;SDS011;44475;53.206;-6.106;2023-07-31T11:30:36;219.68;;;99.20;;
58697;SDS011;44475;53.206;-6.106;2023-07-31T11:33:04;226.57;;;98.70;;
58697;SDS011;44475;53.206;-6.106;2023-07-31T11:36:04;229.80;;;100.40;;
58697;SDS011;44475;53.206;-6.106;2023-07-31T11:38:24;240.88;;;101.03;;
58697;SDS011;44475;53.206;-6.106;2023-07-31T11:41:09;226.77;;;98.97;;
58697;SDS011;44475;53.206;-6.106;2023-07-31T11:43:38;214.00;;;94.57;;
58697;SDS011;44475;53.206;-6.106;2023-07-31T11:46:04;218.48;;;96.35;;
58697;SDS011;44475;53.206;-6.106;2023-07-31T11:48:32;224.45;;;93.78;;
58697;SDS011;44475;53.206;-6.106;2023-07-31T11:51:04;207.68;;;93.30;;
58697;SDS011;44475;53.206;-6.106;2023-07-31T11:53:35;210.75;;;93.35;;
58697;SDS011;44475;53.206;-6.106;2023-07-31T11:56:28;205.43;;;92.55;;
58697;SDS011;44475;53.206;-6.106;2023-07-31T11:58:57;203.95;;;91.35;;
58697;SDS011;44475;53.206;-6.106;2023-07-31T12:01:25;196.68;;;88.55;;
58697;SDS011;44475;53.206;-6.106;2023-07-31T12:03:55;198.68;;;89.90;;
58697;SDS011;44475;53.206;-6.106;2023-07-31T12:06:31;198.90;;;89.00;;
58697;SDS011;44475;53.206;-6.106;2023-07-31T12:09:04;188.65;;;87.47;;
58697;SDS011;44475;53.206;-6.106;2023-07-31T12:11:31;186.48;;;85.70;;
58697;SDS011;44475;53.206;-6.106;2023-07-31T12:14:07;188.15;;;84.03;;
58697;SDS011;44475;53.206;-6.106;2023-07-31T12:16:44;190.65;;;83.40;;
58697;SDS011;44475;53.206;-6.106;2023-07-31T12:19:10;172.32;;;79.22;;
58697;SDS011;44475;53.206;-6.106;2023-07-31T12:21:37;180.07;;;85.65;;
58697;SDS011;44475;53.206;-6.106;2023-07-31T12:24:03;180.68;;;82.72;;
58697;SDS011;44475;53.206;-6.106;2023-07-31T12:26:33;177.50;;;83.38;;
58697;SDS011;44475;53.206;-6.106;2023-07-31T12:29:00;176.13;;;82.40;;
58697;SDS011;44475;53.206;-6.106;2023-07-31T12:31:27;175.35;;;81.63;;
58697;SDS011;44475;53.206;-6.106;2023-07-31T12:33:54;174.90;;;81.82;;
58697;SDS011;44475;53.206;-6.106;2023-07-31T12:36:23;187.40;;;87.05;;
58697;SDS011;44475;53.206;-6.106;2023-07-31T12:38:50;177.70;;;85.32;;
58697;SDS011;44475;53.206;-6.106;2023-07-31T12:41:16;184.52;;;87.18;;
58697;SDS011;44475;53.206;-6.106;2023-07-31T12:43:43;190.65;;;87.47;;
58697;SDS011;44475;53.206;-6.106;2023-07-31T12:46:10;191.40;;;90.63;;
58697;SDS011;44475;53.206;-6.106;2023-07-31T12:48:38;186.48;;;89.25;;
58697;SDS011;44475;53.206;-6.106;2023-07-31T12:51:05;184.73;;;89.53;;
58697;SDS011;44475;53.206;-6.106;2023-07-31T12:53:34;185.57;;;88.20;;
58697;SDS011;44475;53.206;-6.106;2023-07-31T12:56:01;185.50;;;87.13;;
58697;SDS011;44475;53.206;-6.106;2023-07-31T12:58:27;187.70;;;89.55;;
58697;SDS011;44475;53.206;-6.106;2023-07-31T13:00:53;194.10;;;88.00;;
58697;SDS011;44475;53.206;-6.106;2023-07-31T13:03:20;180.40;;;86.97;;
58697;SDS011;44475;53.206;-6.106;2023-07-31T13:05:46;183.48;;;85.43;;
58697;SDS011;44475;53.206;-6.106;2023-07-31T13:08:12;184.65;;;86.45;;
58697;SDS011;44475;53.206;-6.106;2023-07-31T13:10:41;180.68;;;84.20;;
58697;SDS011;44475;53.206;-6.106;2023-07-31T13:13:07;174.40;;;83.07;;
58697;SDS011;44475;53.206;-6.106;2023-07-31T13:15:34;175.18;;;83.30;;
58697;SDS011;44475;53.206;-6.106;2023-07-31T13:18:00;185.55;;;82.88;;
58697;SDS011;44475;53.206;-6.106;2023-07-31T13:20:26;185.60;;;82.07;;
58697;SDS011;44475;53.206;-6.106;2023-07-31T13:22:53;151.20;;;71.25;;
58697;SDS011;44475;53.206;-6.106;2023-07-31T13:25:19;103.13;;;43.67;;
58697;SDS011;44475;53.206;-6.106;2023-07-31T13:27:45;87.07;;;41.80;;
58697;SDS011;44475;53.206;-6.106;2023-07-31T13:30:11;95.25;;;43.80;;
58697;SDS011;44475;53.206;-6.106;2023-07-31T13:32:38;114.18;;;51.72;;
58697;SDS011;44475;53.206;-6.106;2023-07-31T13:35:07;109.43;;;50.88;;
58697;SDS011;44475;53.206;-6.106;2023-07-31T13:37:34;136.52;;;57.08;;
58697;SDS011;44475;53.206;-6.106;2023-07-31T13:40:01;134.63;;;57.17;;
58697;SDS011;44475;53.206;-6.106;2023-07-31T13:42:29;131.68;;;58.20;;
58697;SDS011;44475;53.206;-6.106;2023-07-31T13:44:56;131.85;;;58.22;;
58697;SDS011;44475;53.206;-6.106;2023-07-31T13:47:22;137.18;;;56.95;;
58697;SDS011;44475;53.206;-6.106;2023-07-31T13:49:48;149.80;;;62.42;;
58697;SDS011;44475;53.206;-6.106;2023-07-31T13:52:15;150.70;;;61.33;;
58697;SDS011;44475;53.206;-6.106;2023-07-31T13:54:41;125.00;;;55.30;;
58697;SDS011;44475;53.206;-6.106;2023-07-31T13:57:08;148.20;;;60.53;;
58697;SDS011;44475;53.206;-6.106;2023-07-31T13:59:34;124.47;;;54.38;;
58697;SDS011;44475;53.206;-6.106;2023-07-31T14:02:01;120.28;;;50.17;;
58697;SDS011;44475;53.206;-6.106;2023-07-31T14:04:28;103.72;;;45.17;;
58697;SDS011;44475;53.206;-6.106;2023-07-31T14:06:55;108.40;;;43.03;;
58697;SDS011;44475;53.206;-6.106;2023-07-31T14:09:21;102.63;;;40.40;;
58697;SDS011;44475;53.206;-6.106;2023-07-31T14:11:48;90.70;;;39.03;;
58697;SDS011;44475;53.206;-6.106;2023-07-31T14:14:14;97.70;;;39.70;;
58697;SDS011;44475;53.206;-6.106;2023-07-31T14:16:43;95.05;;;38.30;;
58697;SDS011;44475;53.206;-6.106;2023-07-31T14:19:09;85.03;;;38.03;;
58697;SDS011;44475;53.206;-6.106;2023-07-31T14:21:35;84.43;;;36.05;;
58697;SDS011;44475;53.206;-6.106;2023-07-31T14:24:01;90.45;;;35.17;;
58697;SDS011;44475;53.206;-6.106;2023-07-31T14:26:28;85.35;;;36.00;;
58697;SDS011;44475;53.206;-6.106;2023-07-31T14:28:54;81.13;;;33.28;;
58697;SDS011;44475;53.206;-6.106;2023-07-31T14:31:20;75.38;;;31.30;;
58697;SDS011;44475;53.206;-6.106;2023-07-31T14:33:46;76.05;;;31.48;;
58697;SDS011;44475;53.206;-6.106;2023-07-31T14:36:13;68.50;;;30.42;;
58697;SDS011;44475;53.206;-6.106;2023-07-31T14:38:39;62.22;;;28.20;;
58697;SDS011;44475;53.206;-6.106;2023-07-31T14:41:05;63.40;;;28.15;;
58697;SDS011;44475;53.206;-6.106;2023-07-31T14:43:31;72.30;;;28.05;;
58697;SDS011;44475;53.206;-6.106;2023-07-31T14:45:58;60.17;;;26.85;;